Time;durP1;ratioP1;P1;durP2;ratioP2;P2;SDS_P1;SDS_P2;PMS_P1;PMS_P2;Temp;Humidity;BMP_temperature;BMP_pressure;BME280_temperature;BME280_humidity;BME280_pressure;Samples;Min_cycle;Max_cycle;Signal;HPM_P1;HPM_P2
2022/06/01 00:00:10;;;;;;;38.53;24.90;;;;;;;16.93;100.00;100010.84;5029326;28;20473;-50
2022/06/01 00:02:38;;;;;;;38.58;25.05;;;;;;;16.93;100.00;100011.69;5029123;28;20136;-47
2022/06/01 00:05:05;;;;;;;39.72;25.30;;;;;;;16.92;100.00;100015.22;5022298;28;20436;-48
2022/06/01 00:07:30;;;;;;;40.90;25.80;;;;;;;16.92;100.00;100009.97;5029118;28;20053;-49
2022/06/01 00:09:56;;;;;;;45.65;26.50;;;;;;;16.91;100.00;100013.53;5029596;28;20041;-48
2022/06/01 00:12:22;;;;;;;39.72;26.15;;;;;;;16.90;100.00;100014.44;5029978;28;20043;-48
2022/06/01 00:14:49;;;;;;;46.13;26.80;;;;;;;16.83;100.00;100007.88;5049215;28;20049;-52
2022/06/01 00:17:16;;;;;;;45.08;27.75;;;;;;;16.90;100.00;100021.53;5032266;28;20060;-50
2022/06/01 00:19:43;;;;;;;39.92;25.85;;;;;;;16.87;100.00;100008.53;5031832;28;20429;-49
2022/06/01 00:22:12;;;;;;;42.25;26.17;;;;;;;16.89;100.00;100022.44;5032316;28;20401;-48
2022/06/01 00:24:39;;;;;;;44.58;26.75;;;;;;;16.87;100.00;100014.63;5031170;28;20493;-47
2022/06/01 00:39:23;;;;;;;62.30;29.30;;;;;;;16.88;100.00;99999.72;4443494;28;16203436;-51
2022/06/01 00:41:49;;;;;;;61.83;29.20;;;;;;;16.79;100.00;100006.34;4989598;28;20065;-49
2022/06/01 00:44:15;;;;;;;73.28;29.48;;;;;;;16.67;100.00;100007.00;5005887;28;20053;-50
2022/06/01 00:46:41;;;;;;;76.72;27.88;;;;;;;16.55;100.00;100010.25;5005389;28;20042;-52
2022/06/01 00:49:15;;;;;;;79.88;30.75;;;;;;;16.41;100.00;100011.00;5006028;28;20050;-48
2022/06/01 00:51:41;;;;;;;84.03;30.75;;;;;;;16.31;100.00;100019.44;5004764;28;20118;-50
2022/06/01 00:54:07;;;;;;;82.15;31.38;;;;;;;16.20;100.00;100014.75;4988945;28;20111;-52
2022/06/01 00:56:38;;;;;;;86.03;30.67;;;;;;;16.10;100.00;100018.78;4988218;28;20122;-47
2022/06/01 00:59:05;;;;;;;82.22;31.27;;;;;;;16.01;100.00;100014.84;5005708;28;20117;-49
2022/06/01 01:01:31;;;;;;;83.15;29.88;;;;;;;15.93;100.00;100029.25;5004895;28;20061;-48
2022/06/01 01:04:00;;;;;;;80.97;30.67;;;;;;;15.87;100.00;100024.31;5005288;28;20050;-47
2022/06/01 01:06:29;;;;;;;87.88;33.97;;;;;;;15.82;100.00;100028.97;4989456;28;20108;-49
2022/06/01 01:08:55;;;;;;;85.38;33.60;;;;;;;15.78;100.00;100022.19;5004931;28;20080;-47
2022/06/01 01:11:49;;;;;;;84.05;32.38;;;;;;;15.80;100.00;100034.31;5005079;28;20042;-49
2022/06/01 01:14:20;;;;;;;78.70;31.50;;;;;;;15.79;100.00;100027.34;5003128;28;20141;-51
2022/06/01 01:16:48;;;;;;;79.97;33.72;;;;;;;15.82;100.00;100034.19;5094714;27;20086;-50
2022/06/01 01:19:33;;;;;;;81.97;31.63;;;;;;;15.83;100.00;100025.41;5142962;27;20039;-50
2022/06/01 01:22:36;;;;;;;76.35;32.50;;;;;;;15.83;100.00;100026.25;5155332;27;20095;-49
2022/06/01 01:25:17;;;;;;;81.97;32.67;;;;;;;15.82;100.00;100029.81;5121582;27;20034;-50
2022/06/01 01:27:46;;;;;;;79.60;32.33;;;;;;;15.83;100.00;100035.91;5162832;27;20421;-49
2022/06/01 01:30:38;;;;;;;79.65;32.22;;;;;;;15.84;100.00;100038.47;5143727;27;20134;-50
2022/06/01 01:33:14;;;;;;;71.93;32.10;;;;;;;15.85;100.00;100040.16;5135838;27;20043;-50
2022/06/01 01:35:41;;;;;;;79.32;33.00;;;;;;;15.85;100.00;100041.94;5141849;27;20043;-47
2022/06/01 01:38:10;;;;;;;70.90;31.73;;;;;;;15.83;100.00;100038.53;5144454;27;20055;-50
2022/06/01 01:40:36;;;;;;;78.07;32.50;;;;;;;15.79;100.00;100040.47;5136271;27;20043;-48
2022/06/01 01:43:06;;;;;;;77.97;33.33;;;;;;;15.79;100.00;100043.09;5145195;27;20046;-52
2022/06/01 01:45:34;;;;;;;79.30;33.47;;;;;;;15.84;100.00;100054.19;5137128;27;20039;-48
2022/06/01 01:48:00;;;;;;;73.40;32.42;;;;;;;15.88;100.00;100047.00;5119680;27;20157;-52
2022/06/01 01:50:26;;;;;;;76.32;32.88;;;;;;;15.77;100.00;100023.94;5128552;27;20035;-50
2022/06/01 01:52:53;;;;;;;68.68;31.67;;;;;;;15.91;100.00;100052.13;5129986;27;20433;-49
2022/06/01 01:55:38;;;;;;;68.15;32.13;;;;;;;15.94;100.00;100055.41;5115894;27;20063;-48
2022/06/01 01:58:29;;;;;;;66.82;31.98;;;;;;;15.97;100.00;100047.38;5127739;27;20039;-49
2022/06/01 02:01:04;;;;;;;65.68;30.83;;;;;;;16.03;100.00;100047.09;5122987;27;20039;-47
2022/06/01 02:03:34;;;;;;;59.10;29.95;;;;;;;16.16;100.00;100049.09;5120360;27;20035;-49
2022/06/01 02:06:12;;;;;;;66.25;30.92;;;;;;;16.27;100.00;100052.00;5132345;27;20418;-49
2022/06/01 02:08:41;;;;;;;58.85;29.92;;;;;;;16.36;100.00;100048.91;5131860;27;20034;-50
2022/06/01 02:14:05;;;;;;;60.92;29.98;;;;;;;16.50;100.00;100056.88;5132551;27;20038;-51
2022/06/01 02:16:35;;;;;;;52.92;30.65;;;;;;;16.53;100.00;100051.50;5128882;27;20052;-49
2022/06/01 02:19:02;;;;;;;61.10;31.50;;;;;;;16.56;100.00;100053.09;5115409;27;20035;-49
2022/06/01 02:21:28;;;;;;;59.03;30.50;;;;;;;16.53;100.00;100046.25;5118831;27;20050;-50
2022/06/01 02:23:56;;;;;;;63.58;31.80;;;;;;;16.49;100.00;100055.19;5114582;27;20043;-50
2022/06/01 02:26:22;;;;;;;58.40;32.53;;;;;;;16.48;100.00;100046.50;5114252;27;20477;-52
2022/06/01 02:28:49;;;;;;;62.22;32.90;;;;;;;16.52;100.00;100049.78;5132015;27;20043;-49
2022/06/01 02:31:16;;;;;;;54.97;30.75;;;;;;;16.60;100.00;100037.13;5124300;27;20047;-49
2022/06/01 02:33:44;;;;;;;53.88;30.95;;;;;;;16.69;100.00;100047.16;5131802;27;20585;-48
2022/06/01 02:36:14;;;;;;;54.80;33.72;;;;;;;16.75;100.00;100040.69;5131810;27;20134;-50
2022/06/01 02:38:48;;;;;;;55.97;33.60;;;;;;;16.91;100.00;100052.06;5112634;27;20056;-49
2022/06/01 02:43:58;;;;;;;62.70;38.72;;;;;;;17.18;100.00;100054.97;5133052;27;20069;-50
2022/06/01 02:46:24;;;;;;;58.45;38.00;;;;;;;17.27;100.00;100044.78;5133217;27;20066;-51
2022/06/01 02:48:50;;;;;;;52.78;35.55;;;;;;;17.40;100.00;100047.59;5116284;27;20039;-49
2022/06/01 02:51:18;;;;;;;53.53;36.50;;;;;;;17.50;100.00;100053.16;5120130;27;20126;-51
2022/06/01 02:53:46;;;;;;;47.53;33.90;;;;;;;17.56;100.00;100053.69;5131894;27;20038;-50
2022/06/01 02:56:13;;;;;;;50.00;33.65;;;;;;;17.62;100.00;100050.72;5116237;27;20043;-52
2022/06/01 02:58:39;;;;;;;45.08;34.25;;;;;;;17.66;99.90;100052.25;5126995;27;20043;-51
2022/06/01 03:01:06;;;;;;;40.05;31.50;;;;;;;17.67;98.77;100048.69;5131051;27;20045;-52
2022/06/01 03:03:33;;;;;;;41.70;31.15;;;;;;;17.66;97.64;100046.97;5131475;27;20122;-47
2022/06/01 03:05:58;;;;;;;40.42;28.63;;;;;;;17.61;97.01;100041.16;5128265;27;20482;-52
2022/06/01 03:08:25;;;;;;;41.45;29.98;;;;;;;17.65;96.42;100047.06;5125649;27;20070;-50
2022/06/01 03:10:51;;;;;;;33.35;27.60;;;;;;;17.62;96.06;100048.09;5126281;27;20153;-48
2022/06/01 03:13:18;;;;;;;36.08;25.50;;;;;;;17.62;95.39;100044.63;5144445;27;20142;-49
2022/06/01 03:15:44;;;;;;;33.30;24.92;;;;;;;17.66;94.64;100048.75;5121042;27;20142;-48
2022/06/01 03:18:09;;;;;;;34.95;26.20;;;;;;;17.69;94.04;100052.06;5122074;27;20126;-48
2022/06/01 03:20:36;;;;;;;35.80;25.92;;;;;;;17.66;93.68;100049.63;5122156;27;20086;-48
2022/06/01 03:23:02;;;;;;;34.42;26.45;;;;;;;17.71;93.52;100049.34;5121956;27;20051;-49
2022/06/01 03:25:28;;;;;;;37.35;26.98;;;;;;;17.73;93.15;100052.75;5116015;27;20040;-49
2022/06/01 03:27:59;;;;;;;34.83;27.25;;;;;;;17.72;93.21;100051.03;5123156;27;20036;-48
2022/06/01 03:30:25;;;;;;;36.55;24.77;;;;;;;17.77;93.13;100054.25;5113502;27;20047;-54
2022/06/01 03:32:52;;;;;;;37.28;24.35;;;;;;;17.82;92.56;100054.00;5118961;27;20066;-51
2022/06/01 03:35:20;;;;;;;37.63;25.80;;;;;;;17.82;92.21;100054.00;5123329;27;20031;-51
2022/06/01 03:37:46;;;;;;;33.72;25.65;;;;;;;17.75;92.08;100041.19;5119413;27;20074;-48
2022/06/01 03:40:13;;;;;;;33.85;25.20;;;;;;;17.85;91.86;100048.56;5128325;27;20502;-48
2022/06/01 03:42:39;;;;;;;48.08;26.33;;;;;;;17.89;91.84;100055.34;5129900;27;20089;-47
2022/06/01 03:47:49;;;;;;;31.42;24.00;;;;;;;17.97;90.70;100055.72;5113501;27;20031;-49
2022/06/01 03:50:17;;;;;;;29.60;22.58;;;;;;;18.03;89.77;100050.94;5113008;27;20039;-48
2022/06/01 03:52:47;;;;;;;25.90;20.65;;;;;;;18.12;89.14;100055.66;5122837;27;20039;-48
2022/06/01 03:55:14;;;;;;;30.17;21.42;;;;;;;18.23;88.52;100056.81;5117228;27;20044;-51
2022/06/01 03:57:41;;;;;;;24.70;19.45;;;;;;;18.30;87.48;100050.25;5123070;27;20039;-49
2022/06/01 04:00:11;;;;;;;26.65;20.67;;;;;;;18.39;86.58;100049.69;5113052;27;20464;-51
2022/06/01 04:02:41;;;;;;;21.63;17.92;;;;;;;18.46;86.11;100053.66;5123848;27;20082;-49
2022/06/01 04:05:08;;;;;;;25.05;18.55;;;;;;;18.49;85.19;100046.41;5119102;27;20042;-49
2022/06/01 04:07:34;;;;;;;27.85;17.85;;;;;;;18.43;84.79;100030.97;5120337;27;20043;-51
2022/06/01 04:10:00;;;;;;;24.75;18.30;;;;;;;18.61;84.27;100039.56;5128140;27;20111;-51
2022/06/01 04:12:26;;;;;;;24.33;16.88;;;;;;;18.58;83.67;100029.22;5127753;27;20573;-54
2022/06/01 04:14:51;;;;;;;25.48;18.48;;;;;;;18.73;83.11;100046.72;5126012;27;20046;-50
2022/06/01 04:17:17;;;;;;;23.67;15.70;;;;;;;18.71;82.46;100031.94;5134574;27;20039;-50
2022/06/01 04:19:43;;;;;;;19.73;15.80;;;;;;;18.85;81.85;100040.66;5112589;27;20534;-49
2022/06/01 04:22:09;;;;;;;20.15;15.10;;;;;;;18.92;81.32;100039.34;5126591;27;20070;-49
2022/06/01 04:24:35;;;;;;;18.80;15.25;;;;;;;18.99;80.92;100040.66;5115417;27;20511;-49
2022/06/01 04:27:01;;;;;;;22.48;14.88;;;;;;;19.08;80.47;100046.28;5127473;27;20043;-48
2022/06/01 04:29:27;;;;;;;19.80;14.70;;;;;;;19.13;79.95;100041.56;5111518;28;20533;-46
2022/06/01 04:32:03;;;;;;;18.48;13.90;;;;;;;19.20;79.21;100048.16;5110995;28;20419;-49
2022/06/01 04:34:29;;;;;;;17.35;13.82;;;;;;;19.26;78.66;100045.94;5112512;28;20105;-48
2022/06/01 04:36:55;;;;;;;22.17;12.55;;;;;;;19.34;77.87;100040.19;5119151;28;20160;-48
2022/06/01 04:39:24;;;;;;;14.80;11.77;;;;;;;19.47;77.13;100058.75;5117088;28;20111;-49
2022/06/01 04:41:50;;;;;;;21.65;12.43;;;;;;;19.62;76.58;100052.47;5116610;27;20050;-51
2022/06/01 04:44:16;;;;;;;18.58;12.93;;;;;;;19.77;75.52;100048.81;5112456;28;20087;-49
2022/06/01 04:46:42;;;;;;;14.50;11.48;;;;;;;19.80;74.56;100033.63;5111131;28;20424;-49
2022/06/01 04:49:07;;;;;;;15.45;12.55;;;;;;;20.12;73.54;100055.22;5109905;28;20043;-49
2022/06/01 04:51:34;;;;;;;16.13;10.77;;;;;;;20.27;71.89;100062.09;5123103;28;20039;-47
2022/06/01 04:54:00;;;;;;;13.13;9.23;;;;;;;20.39;70.64;100060.44;5121283;27;20035;-52
2022/06/01 04:56:27;;;;;;;13.32;9.77;;;;;;;20.51;69.85;100070.16;5130138;27;20039;-47
2022/06/01 04:58:53;;;;;;;12.93;9.70;;;;;;;20.61;69.15;100060.66;5129909;27;20050;-49
2022/06/01 05:01:18;;;;;;;18.60;11.63;;;;;;;20.62;69.13;100062.31;5120875;28;20099;-49
2022/06/01 05:03:44;;;;;;;16.02;10.98;;;;;;;20.60;69.25;100053.66;5117876;28;20489;-47
2022/06/01 05:06:10;;;;;;;19.52;10.15;;;;;;;20.53;69.34;100049.75;5125069;28;20172;-50
2022/06/01 05:08:36;;;;;;;14.15;10.90;;;;;;;20.63;69.37;100065.81;5123380;27;20392;-50
2022/06/01 05:11:02;;;;;;;17.25;10.35;;;;;;;20.57;69.33;100066.22;5112817;27;20046;-47
2022/06/01 05:13:28;;;;;;;18.10;10.63;;;;;;;20.46;69.53;100060.88;5129230;28;20051;-49
2022/06/01 05:15:57;;;;;;;14.50;10.15;;;;;;;20.36;69.93;100054.53;5125741;27;20035;-49
2022/06/01 05:18:24;;;;;;;23.73;12.05;;;;;;;20.24;70.40;100056.19;5128473;27;20111;-48
2022/06/01 05:20:50;;;;;;;14.65;10.43;;;;;;;20.18;70.47;100057.44;5131822;27;20121;-53
2022/06/01 05:23:17;;;;;;;15.38;11.15;;;;;;;20.20;70.39;100052.06;5113309;27;20421;-50
2022/06/01 05:25:45;;;;;;;17.00;11.00;;;;;;;20.10;70.50;100043.03;5125382;27;20170;-50
2022/06/01 05:28:11;;;;;;;17.00;13.00;;;;;;;20.26;70.57;100060.38;5144279;27;20039;-48
2022/06/01 05:30:37;;;;;;;16.85;11.18;;;;;;;20.28;70.47;100055.84;5115710;27;20039;-52
2022/06/01 05:33:03;;;;;;;16.77;11.48;;;;;;;20.30;70.37;100053.13;5124740;27;20118;-48
2022/06/01 05:35:29;;;;;;;17.30;11.32;;;;;;;20.34;70.16;100052.00;5101355;28;20043;-48
2022/06/01 05:37:54;;;;;;;14.88;9.07;;;;;;;20.39;70.00;100047.22;5121127;27;20058;-49
2022/06/01 05:40:20;;;;;;;15.57;8.77;;;;;;;20.43;69.48;100048.69;5118184;27;20537;-51
2022/06/01 05:42:46;;;;;;;12.68;8.95;;;;;;;20.47;68.68;100050.16;5129965;27;20048;-50
2022/06/01 05:45:12;;;;;;;13.60;9.10;;;;;;;20.38;68.07;100019.13;5114074;28;20551;-51
2022/06/01 05:47:38;;;;;;;15.60;9.50;;;;;;;20.54;68.20;100032.97;5121879;27;20039;-50
2022/06/01 05:50:05;;;;;;;17.92;9.50;;;;;;;20.61;68.20;100033.38;5122529;27;20158;-51
2022/06/01 05:52:31;;;;;;;18.90;10.30;;;;;;;20.57;68.29;100001.03;5134581;27;20043;-53
2022/06/01 05:54:57;;;;;;;14.25;9.38;;;;;;;20.78;68.44;100026.91;5118487;27;20036;-49
2022/06/01 05:57:23;;;;;;;12.05;8.63;;;;;;;20.77;68.14;100017.28;5117901;27;20039;-50
2022/06/01 05:59:49;;;;;;;13.18;7.10;;;;;;;20.79;67.74;100013.56;5125417;27;20191;-49
2022/06/01 06:02:14;;;;;;;8.38;4.60;;;;;;;20.89;66.36;100025.19;5128604;27;20042;-50
2022/06/01 06:04:40;;;;;;;11.25;5.05;;;;;;;20.92;64.91;100026.75;5116268;27;20126;-52
2022/06/01 06:07:06;;;;;;;7.97;4.50;;;;;;;20.98;64.76;100018.41;5115774;27;20042;-50
2022/06/01 06:09:32;;;;;;;7.57;4.43;;;;;;;21.04;64.33;100017.97;5120170;27;20423;-50
2022/06/01 06:11:58;;;;;;;8.25;5.18;;;;;;;21.17;63.73;100012.66;5131139;27;20098;-52
2022/06/01 06:14:24;;;;;;;7.60;4.00;;;;;;;21.17;62.40;100005.56;5114820;27;20127;-53
2022/06/01 06:16:49;;;;;;;8.55;4.85;;;;;;;21.31;61.54;100015.13;5117615;27;20039;-51
2022/06/01 06:19:17;;;;;;;11.73;4.63;;;;;;;21.42;61.21;100023.13;5114960;27;20522;-48
2022/06/01 06:21:44;;;;;;;8.88;4.43;;;;;;;21.47;60.43;100011.25;5120443;27;20059;-50
2022/06/01 06:24:12;;;;;;;5.75;3.80;;;;;;;21.58;59.45;100004.31;5130460;27;20049;-52
2022/06/01 06:26:39;;;;;;;7.97;3.72;;;;;;;21.73;58.77;100004.00;5125019;27;20035;-47
2022/06/01 06:29:09;;;;;;;12.68;7.00;;;;;;;21.90;57.88;100005.38;5124754;27;20123;-49
2022/06/01 06:31:36;;;;;;;12.68;8.77;;;;;;;22.14;58.23;100000.88;5127718;27;20041;-47
2022/06/01 06:34:02;;;;;;;6.35;3.50;;;;;;;22.50;56.88;100007.78;5122876;27;20047;-49
2022/06/01 06:36:28;;;;;;;9.70;4.35;;;;;;;23.07;55.48;100007.66;5113158;28;20039;-47
2022/06/01 06:38:54;;;;;;;8.57;3.75;;;;;;;23.82;53.59;100004.97;5113850;27;20116;-50
2022/06/01 06:41:21;;;;;;;11.55;7.28;;;;;;;24.80;51.09;100006.22;5127629;27;20039;-52
2022/06/01 06:44:03;;;;;;;10.00;6.57;;;;;;;25.98;47.90;100005.22;5119591;27;20043;-47
2022/06/01 06:46:29;;;;;;;9.35;4.00;;;;;;;26.96;46.04;100013.63;5123696;27;20042;-50
2022/06/01 06:48:55;;;;;;;8.93;5.45;;;;;;;28.01;43.95;100012.97;5128491;27;20039;-48
2022/06/01 06:51:21;;;;;;;8.50;6.22;;;;;;;29.15;40.66;100009.94;5126485;27;20046;-52
2022/06/01 06:53:48;;;;;;;9.02;4.43;;;;;;;30.25;38.91;100010.34;5120921;27;20073;-50
2022/06/01 06:56:15;;;;;;;4.47;3.67;;;;;;;31.23;36.36;100008.16;5147867;27;20043;-49
2022/06/01 06:58:41;;;;;;;10.82;5.25;;;;;;;32.12;34.50;100012.03;5122430;27;20533;-53
2022/06/01 07:01:07;;;;;;;8.00;4.20;;;;;;;33.10;33.29;100015.28;5122040;27;20039;-48
2022/06/01 07:03:33;;;;;;;7.32;4.43;;;;;;;34.03;31.46;100010.63;5129861;27;20506;-47
2022/06/01 07:06:22;;;;;;;5.32;3.45;;;;;;;34.79;29.72;100014.28;5123738;27;20046;-48
2022/06/01 07:08:52;;;;;;;8.50;3.95;;;;;;;35.69;27.08;100007.72;5129615;27;20182;-48
2022/06/01 07:11:20;;;;;;;7.63;4.50;;;;;;;36.41;25.96;99998.72;5132316;27;20042;-47
2022/06/01 07:13:49;;;;;;;5.80;4.07;;;;;;;37.08;25.38;100005.56;5118974;27;20137;-51
2022/06/01 07:16:21;;;;;;;7.45;3.83;;;;;;;37.81;24.33;100003.25;5125140;27;20458;-51
2022/06/01 07:18:49;;;;;;;6.70;3.90;;;;;;;38.22;23.30;99995.38;5129725;27;20049;-49
2022/06/01 07:21:15;;;;;;;;;;;;;;;38.56;23.74;99999.44;5124098;27;20063;-50
2022/06/01 07:23:41;;;;;;;4.82;3.58;;;;;;;39.00;22.26;99998.28;5111201;27;19966;-53
2022/06/01 07:26:09;;;;;;;5.28;3.03;;;;;;;39.31;21.49;99994.47;5126124;27;20135;-51
2022/06/01 07:28:36;;;;;;;8.82;4.90;;;;;;;39.84;20.91;99994.53;5111679;27;20519;-50
2022/06/01 07:31:02;;;;;;;5.75;3.70;;;;;;;40.32;19.96;99990.75;5148772;27;20035;-54
2022/06/01 07:33:28;;;;;;;5.05;3.60;;;;;;;40.70;19.09;100003.88;5130763;27;20031;-53
2022/06/01 07:35:58;;;;;;;5.40;3.47;;;;;;;41.13;19.00;100000.69;5128483;27;20566;-52
2022/06/01 07:43:55;;;;;;;;;;;;;;;42.02;18.01;99999.81;5088052;28;20530;-54
2022/06/01 07:46:21;;;;;;;11.25;7.55;;;;;;;42.31;17.44;99995.06;5089238;28;20011;-55
2022/06/01 07:48:49;;;;;;;4.60;2.65;;;;;;;42.38;16.86;99990.25;5079583;28;20035;-52
2022/06/01 07:51:16;;;;;;;6.60;4.05;;;;;;;42.60;16.99;99987.53;5076049;28;20039;-50
2022/06/01 07:53:42;;;;;;;8.13;4.25;;;;;;;42.77;16.87;99990.19;5089979;28;20131;-53
2022/06/01 07:56:09;;;;;;;9.00;3.45;;;;;;;43.12;16.55;99984.34;5074918;28;20135;-55
2022/06/01 07:58:35;;;;;;;7.33;2.97;;;;;;;43.30;15.94;99994.91;5082818;28;20052;-53
2022/06/01 08:01:01;;;;;;;7.28;3.78;;;;;;;43.40;15.74;99995.00;5073526;28;20380;-56
2022/06/01 08:03:28;;;;;;;4.32;3.50;;;;;;;43.36;15.48;99981.00;5076243;28;20028;-56
2022/06/01 08:05:54;;;;;;;5.90;3.50;;;;;;;43.64;16.18;99990.03;5088245;28;20047;-55
2022/06/01 08:08:19;;;;;;;14.15;8.95;;;;;;;44.10;16.06;100000.28;5078989;28;20565;-49
2022/06/01 08:10:46;;;;;;;5.28;4.25;;;;;;;44.33;15.50;99997.13;5071411;28;20043;-51
2022/06/01 08:13:14;;;;;;;8.82;2.97;;;;;;;44.45;14.80;99988.69;5082978;28;20040;-49
2022/06/01 08:15:48;;;;;;;13.32;5.15;;;;;;;44.91;15.29;99997.94;5086223;28;20050;-54
2022/06/01 08:18:16;;;;;;;5.82;3.40;;;;;;;45.12;14.51;99996.13;5072826;28;20036;-49
2022/06/01 08:20:43;;;;;;;7.07;3.40;;;;;;;45.12;14.84;99996.13;5085833;28;20071;-50
2022/06/01 08:23:09;;;;;;;2.97;2.75;;;;;;;44.25;15.31;99994.03;5090551;28;20485;-52
2022/06/01 08:25:35;;;;;;;5.30;3.60;;;;;;;43.22;16.06;99984.44;5083950;28;20070;-50
2022/06/01 08:28:02;;;;;;;7.40;3.88;;;;;;;42.36;16.84;99992.38;5073819;28;20509;-51
2022/06/01 08:30:29;;;;;;;4.25;2.80;;;;;;;41.74;17.01;99987.03;5072963;28;20472;-49
2022/06/01 08:32:56;;;;;;;5.93;3.30;;;;;;;41.81;17.35;99990.44;5087957;28;20507;-52
2022/06/01 08:35:25;;;;;;;12.00;10.77;;;;;;;42.14;16.98;99986.84;5089803;28;20032;-54
2022/06/01 08:37:51;;;;;;;5.47;3.38;;;;;;;42.82;16.24;99979.31;5098570;28;20490;-50
2022/06/01 08:40:20;;;;;;;6.70;3.40;;;;;;;43.22;15.67;99978.97;5127457;28;20058;-53
2022/06/01 08:42:55;;;;;;;5.20;4.18;;;;;;;43.46;15.96;99983.00;5128888;28;20035;-53
2022/06/01 08:45:22;;;;;;;6.25;3.55;;;;;;;42.77;16.54;99984.72;5130441;28;20416;-51
2022/06/01 08:47:48;;;;;;;8.35;3.45;;;;;;;42.83;16.02;99986.44;5112628;28;20099;-52
2022/06/01 08:50:25;;;;;;;7.63;3.80;;;;;;;42.77;15.96;99980.06;5126420;28;20095;-50
2022/06/01 08:52:52;;;;;;;6.23;4.07;;;;;;;42.57;16.47;99977.91;5126977;28;20430;-51
2022/06/01 08:55:18;;;;;;;14.00;9.65;;;;;;;42.38;16.77;99964.81;5108796;27;20042;-56
2022/06/01 08:57:50;;;;;;;6.53;2.92;;;;;;;41.69;17.13;99981.50;5132330;27;20042;-55
2022/06/01 09:00:18;;;;;;;6.78;4.30;;;;;;;41.48;17.23;99976.78;5119444;27;20073;-50
2022/06/01 09:02:54;;;;;;;3.47;2.58;;;;;;;42.11;16.40;99970.16;5114590;28;20039;-49
2022/06/01 09:05:38;;;;;;;7.13;3.80;;;;;;;42.87;16.08;99980.19;5115026;28;20038;-50
2022/06/01 09:08:39;;;;;;;6.18;3.38;;;;;;;44.22;14.69;99989.94;5113486;28;20039;-52
2022/06/01 09:11:08;;;;;;;6.25;4.00;;;;;;;43.20;15.95;99975.63;5113486;28;20130;-49
2022/06/01 09:13:40;;;;;;;5.40;3.42;;;;;;;41.92;16.82;99976.97;5129215;27;20043;-50
2022/06/01 09:16:10;;;;;;;5.85;2.88;;;;;;;41.03;17.14;99972.13;5116128;27;20039;-52
2022/06/01 09:18:48;;;;;;;4.65;3.85;;;;;;;41.49;17.21;99974.88;5102263;27;20433;-53
2022/06/01 09:24:30;;;;;;;5.50;3.10;;;;;;;43.21;16.34;99944.44;5117461;27;20027;-54
2022/06/01 09:27:11;;;;;;;9.30;4.65;;;;;;;43.66;15.64;99972.25;5129049;27;20413;-55
2022/06/01 09:29:48;;;;;;;6.47;3.80;;;;;;;44.60;14.99;99966.81;5132813;27;20039;-52
2022/06/01 09:32:41;;;;;;;7.13;3.90;;;;;;;44.97;14.82;99969.41;5135165;27;20039;-49
2022/06/01 09:35:10;;;;;;;9.65;5.03;;;;;;;45.36;14.11;99968.94;5132894;27;20352;-54
2022/06/01 09:37:45;;;;;;;3.67;3.25;;;;;;;45.53;13.11;99972.28;5133036;27;20201;-50
2022/06/01 09:40:28;;;;;;;3.90;3.50;;;;;;;45.69;13.19;99973.09;5117177;27;20476;-53
2022/06/01 09:42:55;;;;;;;4.60;3.40;;;;;;;45.86;13.61;99979.13;5111177;28;20097;-53
2022/06/01 09:45:29;;;;;;;4.43;2.85;;;;;;;44.81;14.10;99967.72;5146735;27;20043;-48
2022/06/01 09:48:31;;;;;;;6.28;2.75;;;;;;;43.15;15.47;99961.91;5113510;28;20521;-52
2022/06/01 09:51:02;;;;;;;3.60;3.30;;;;;;;42.51;15.71;99958.94;5083451;27;20047;-56
2022/06/01 09:54:11;;;;;;;9.15;3.97;;;;;;;42.92;15.57;99955.63;5134004;27;20108;-52
2022/06/01 09:56:45;;;;;;;8.30;2.72;;;;;;;42.17;16.29;99961.78;5110861;28;20044;-53
2022/06/01 10:08:23;;;;;;;3.85;2.25;;;;;;;36.78;20.75;99949.22;5113533;28;20042;-49
2022/06/01 10:10:56;;;;;;;5.38;2.17;;;;;;;36.13;21.03;99943.94;5130041;27;20134;-52
2022/06/01 10:13:39;;;;;;;6.40;2.60;;;;;;;35.31;22.19;99939.81;5129291;27;20134;-53
2022/06/01 10:16:14;;;;;;;5.57;2.80;;;;;;;34.88;23.02;99925.75;5132603;27;20057;-54
2022/06/01 10:18:42;;;;;;;6.97;2.42;;;;;;;34.06;23.45;99931.16;5116918;27;20031;-55
2022/06/01 10:21:10;;;;;;;;;;;;;;;33.67;23.92;99930.81;5125018;27;20039;-55
2022/06/01 10:23:48;;;;;;;7.20;2.35;;;;;;;33.11;24.46;99926.16;5131759;27;20336;-55
2022/06/01 10:26:33;;;;;;;8.45;2.70;;;;;;;32.83;25.04;99916.31;5115438;27;20530;-54
2022/06/01 10:29:03;;;;;;;5.43;2.67;;;;;;;32.56;25.46;99915.13;5125915;27;20085;-54
2022/06/01 10:31:33;;;;;;;6.45;3.15;;;;;;;32.36;26.38;99913.03;5102760;28;20046;-55
2022/06/01 10:34:05;;;;;;;5.00;2.40;;;;;;;32.07;26.91;99920.25;5115395;27;20049;-58
2022/06/01 10:36:44;;;;;;;4.63;2.30;;;;;;;32.02;27.15;99923.50;5123698;27;20050;-52
2022/06/01 10:39:23;;;;;;;4.93;2.45;;;;;;;32.05;26.45;99924.97;5124909;27;20074;-52
2022/06/01 10:42:03;;;;;;;6.07;2.58;;;;;;;32.44;25.27;99911.28;5116473;27;20035;-54
2022/06/01 10:44:47;;;;;;;8.35;2.78;;;;;;;31.91;25.86;99915.88;5111808;27;20066;-56
2022/06/01 10:47:25;;;;;;;7.53;2.70;;;;;;;31.24;26.66;99914.97;5111955;28;20503;-54
2022/06/01 10:49:54;;;;;;;3.83;2.58;;;;;;;30.76;27.34;99911.56;5114405;27;20081;-53
2022/06/01 10:52:25;;;;;;;4.30;2.22;;;;;;;30.53;27.88;99916.88;5126508;27;20039;-51
2022/06/01 10:55:10;;;;;;;2.85;2.60;;;;;;;30.21;28.21;99917.78;5112265;27;20059;-54
2022/06/01 10:57:39;;;;;;;3.05;2.25;;;;;;;29.87;28.57;99910.00;5112487;28;20426;-55
2022/06/01 11:00:21;;;;;;;12.70;7.43;;;;;;;29.73;29.49;99917.91;5077920;28;20410;-55
2022/06/01 11:03:06;;;;;;;5.15;2.67;;;;;;;29.31;30.12;99913.53;5100446;27;20146;-54
2022/06/01 11:05:50;;;;;;;5.00;2.97;;;;;;;28.80;31.21;99911.94;5133121;27;20129;-53
2022/06/01 11:08:23;;;;;;;6.55;3.10;;;;;;;28.70;31.48;99891.66;5133325;27;20034;-55
2022/06/01 11:11:04;;;;;;;6.78;3.45;;;;;;;28.87;31.84;99912.97;5131591;27;20058;-56
2022/06/01 11:13:47;;;;;;;9.10;3.13;;;;;;;29.06;31.59;99911.81;5116462;27;20545;-54
2022/06/01 11:16:39;;;;;;;6.28;3.40;;;;;;;29.10;31.70;99918.50;5112572;28;20051;-54
2022/06/01 11:19:26;;;;;;;5.28;3.40;;;;;;;29.82;31.08;99931.13;5112498;27;20047;-55
2022/06/01 11:22:14;;;;;;;6.90;2.85;;;;;;;29.62;31.35;99928.97;5132906;27;20073;-55
2022/06/01 11:24:51;;;;;;;8.95;3.50;;;;;;;31.13;29.76;99938.53;5096523;27;20122;-54
2022/06/01 11:27:54;;;;;;;5.68;3.38;;;;;;;31.91;28.87;99929.34;5110818;28;20126;-57
2022/06/01 11:30:24;;;;;;;5.78;3.42;;;;;;;33.19;27.41;99939.53;5110785;28;20043;-54
2022/06/01 11:33:37;;;;;;;5.53;3.13;;;;;;;33.68;26.75;99932.50;5112008;28;20066;-54
2022/06/01 11:36:21;;;;;;;9.77;3.63;;;;;;;33.75;26.95;99931.56;5071265;28;20132;-54
2022/06/01 11:38:54;;;;;;;4.28;3.13;;;;;;;34.08;26.80;99926.38;5072430;28;20584;-54
2022/06/01 11:41:28;;;;;;;5.93;2.47;;;;;;;34.96;25.46;99946.38;5122877;27;20047;-54
2022/06/01 11:44:03;;;;;;;3.15;2.38;;;;;;;35.40;24.85;99949.38;5093810;28;20024;-54
2022/06/01 11:46:40;;;;;;;2.72;2.00;;;;;;;35.37;24.45;99952.53;5125344;27;20066;-56
2022/06/01 11:49:34;;;;;;;7.63;1.83;;;;;;;35.40;24.40;99954.78;5132484;27;20046;-55
2022/06/01 11:52:24;;;;;;;3.67;2.10;;;;;;;35.74;24.07;99945.69;5116438;27;20418;-56
2022/06/01 11:55:10;;;;;;;2.13;1.88;;;;;;;35.62;23.88;99947.31;5131274;27;20043;-58
2022/06/01 11:57:47;;;;;;;1.98;1.40;;;;;;;34.28;25.74;99942.75;5112210;28;20515;-56
2022/06/01 12:00:19;;;;;;;7.95;1.77;;;;;;;34.04;26.39;99944.00;5144674;27;20100;-55
2022/06/01 12:02:50;;;;;;;6.32;1.80;;;;;;;33.43;26.74;99957.19;5111684;28;20087;-56
2022/06/01 12:05:23;;;;;;;3.80;1.92;;;;;;;32.04;28.75;99955.56;5144645;27;20031;-55
2022/06/01 12:07:59;;;;;;;5.05;2.08;;;;;;;31.56;29.85;99950.44;5115620;27;20122;-55
2022/06/01 12:10:31;;;;;;;5.50;2.10;;;;;;;31.46;30.29;99957.94;5111377;27;20149;-55
2022/06/01 12:13:00;;;;;;;3.97;1.90;;;;;;;31.04;30.94;99955.72;5121971;27;20050;-54